Terminal Aerodrome Forecast
Issued by NWS Topeka, KS

Home | Current Version | Previous Version | Text Only | Print | Product List | Glossary Off
Versions: 1 2 3 4 5 6 7 8 9 10 11 12 13 14 15 16 17 18 19 20 21 22

000
FTUS43 KTOP 152200 AAB
TAFTOP
TAF AMD
KTOP 152222Z 1522/1618 29018G26KT P6SM OVC012
      TEMPO 1522/1524 5SM -RASN BR
     FM160000 31018G26KT P6SM OVC022
     FM161400 33014G21KT P6SM SCT030=

USA.gov is the U.S. government's official web portal to all federal, state and local government web resources and services.